Huvudsida
METAR-TAF:

METAR-TAF

Flygplatser :

Monte Argentario, Italien

latitud: 42-23N, longitud: 011-10E, höjd: 630 m

Aktuellt väderrapport

Denna rapport gjordes för 10 timmar och 12 minuter sedan, klockan 17:55 UTC
Stilla vind
Temperatur 13°C
Fuktighet 100%
Tryck 1021 hPa
Sikt under 50 m
dimma

METAR: LIQO 061755Z 00000KT 0000 FG VV/// 13/13 Q1021 RMK VAL INVIS NC VIS MIN 0000

Tid: 05:07 (04:07 UTC)


TAF: saknas

Aktuella väderrapporter och prognoser från 4000 flygplatser (METAR- och TAF-rapporter).

De tillgängliga stationerna syns som gula och röda prickar på kartan.

För musen över prickarna för att se namnen på stationerna.

Klicka sedan för att få väderrapporter och prognoser.

För att ändra kartan: Klicka på de gröna knapparna med ett svart kors på för att zooma in; den gröna knappen med ett streck på för att zooma ut; eller på de gröna pilarna för angränsande kartor.


METAR-TAF: